Terminal Aerodrome Forecast
Issued by NWS Paducah, KY

Home | Current Version | Previous Version | Text Only | Print | Product List | Glossary On
Versions: 1 2 3 4 5 6 7 8 9 10 11 12 13 14 15 16 17
000
FTUS43 KPAH 251700
TAFEVV
TAF
KEVV 251720Z 2518/2618 27008KT P6SM SCT025
      TEMPO 2518/2521 BKN025
     FM260000 00000KT P6SM SKC
     FM261500 17006KT P6SM SCT150 BKN250=

USA.gov is the U.S. government's official web portal to all federal, state and local government web resources and services.